Time;durP1;ratioP1;P1;durP2;ratioP2;P2;SDS_P1;SDS_P2;PMS_P1;PMS_P2;Temp;Humidity;BMP_temperature;BMP_pressure;BME280_temperature;BME280_humidity;BME280_pressure;Samples;Min_cycle;Max_cycle;Signal;HPM_P1;HPM_P2
2022/03/12 00:00:43;;;;;;;;;3.00;2.00;;;;;20.93;39.57;100838.09;5061144;28;51192;-52
2022/03/12 00:03:08;;;;;;;;;2.00;2.00;;;;;20.92;39.57;100830.91;5060774;28;51411;-53
2022/03/12 00:05:35;;;;;;;;;2.75;2.75;;;;;20.91;39.10;100841.09;5064897;28;51167;-48
2022/03/12 00:08:03;;;;;;;;;2.00;2.00;;;;;20.90;39.52;100842.16;5065004;28;52625;-53
2022/03/12 00:10:32;;;;;;;;;2.25;2.00;;;;;20.90;39.53;100844.91;5067435;27;51167;-49
2022/03/12 00:12:58;;;;;;;;;5.00;2.25;;;;;20.90;39.63;100844.91;5064533;28;51330;-49
2022/03/12 00:15:24;;;;;;;;;4.00;2.00;;;;;20.90;39.72;100855.09;5069497;27;51295;-51
2022/03/12 00:17:50;;;;;;;;;1.75;1.75;;;;;20.89;39.26;100851.50;5064507;27;51302;-52
2022/03/12 00:20:19;;;;;;;;;2.50;1.00;;;;;20.90;39.62;100855.09;5071773;27;51100;-50
2022/03/12 00:22:47;;;;;;;;;2.00;2.00;;;;;20.89;39.14;100858.91;5063546;27;51169;-51
2022/03/12 00:25:19;;;;;;;;;2.00;2.00;;;;;20.89;39.08;100858.91;5071838;27;51162;-51
2022/03/12 00:27:45;;;;;;;;;2.25;1.25;;;;;20.88;39.35;100855.31;5067139;27;52731;-50
2022/03/12 00:30:14;;;;;;;;;2.25;2.25;;;;;20.88;39.10;100869.09;5070545;27;51135;-51
2022/03/12 00:32:41;;;;;;;;;2.75;2.75;;;;;20.87;39.29;100867.41;5065802;28;51201;-52
2022/03/12 00:35:09;;;;;;;;;2.00;2.00;;;;;20.86;39.23;100871.22;5066288;28;51149;-51
2022/03/12 00:37:35;;;;;;;;;2.00;2.00;;;;;20.87;39.45;100874.81;5062853;28;52832;-51
2022/03/12 00:40:01;;;;;;;;;2.75;2.75;;;;;20.85;39.14;100879.72;5063755;28;51439;-52
2022/03/12 00:42:26;;;;;;;;;3.00;2.25;;;;;20.85;39.23;100869.53;5075003;28;51288;-50
2022/03/12 00:44:51;;;;;;;;;1.50;1.50;;;;;20.86;38.81;100884.16;5066176;27;51323;-52
2022/03/12 00:47:17;;;;;;;;;1.75;1.75;;;;;20.83;38.92;100877.16;5065159;27;51732;-54
2022/03/12 00:49:45;;;;;;;;;2.00;2.00;;;;;20.82;38.80;100880.13;5067259;27;51029;-51
2022/03/12 00:52:10;;;;;;;;;2.50;1.75;;;;;20.81;38.91;100883.97;5070750;28;51255;-50
2022/03/12 00:54:36;;;;;;;;;2.00;2.00;;;;;20.79;38.80;100897.97;5068070;27;51082;-52
2022/03/12 00:57:02;;;;;;;;;1.00;1.00;;;;;20.78;39.00;100900.94;5066445;28;52042;-50
2022/03/12 00:59:28;;;;;;;;;2.25;2.25;;;;;20.76;38.92;100901.16;5066562;28;51100;-51
2022/03/12 01:01:53;;;;;;;;;1.00;1.00;;;;;20.76;39.15;100912.19;5064666;27;51319;-49
2022/03/12 01:04:18;;;;;;;;;2.25;2.00;;;;;20.75;39.10;100916.00;5064729;28;51887;-51
2022/03/12 01:06:44;;;;;;;;;1.00;1.00;;;;;20.73;39.08;100920.84;5068352;28;51775;-49
2022/03/12 01:09:11;;;;;;;;;1.00;1.00;;;;;20.72;38.71;100921.91;5063400;27;50931;-50
2022/03/12 01:11:38;;;;;;;;;1.50;1.50;;;;;20.71;38.59;100920.25;5067030;27;50989;-49
2022/03/12 01:14:08;;;;;;;;;1.00;1.00;;;;;20.71;38.71;100923.00;5068558;27;51310;-51
2022/03/12 01:16:34;;;;;;;;;3.00;1.00;;;;;20.69;38.47;100920.47;5063181;28;52880;-53
2022/03/12 01:18:59;;;;;;;;;3.00;1.00;;;;;20.68;38.94;100932.53;5067969;27;50992;-52
2022/03/12 01:21:25;;;;;;;;;1.25;1.25;;;;;20.67;38.76;100927.25;5070351;28;51132;-53
2022/03/12 01:23:51;;;;;;;;;2.00;2.00;;;;;20.66;38.81;100928.34;5070261;28;51006;-50
2022/03/12 01:26:19;;;;;;;;;1.00;1.00;;;;;20.65;39.08;100929.41;5065546;27;52855;-53
2022/03/12 01:28:46;;;;;;;;;3.50;1.75;;;;;20.65;38.88;100930.25;5065611;27;51081;-53
2022/03/12 01:31:12;;;;;;;;;3.50;2.00;;;;;20.63;38.96;100935.09;5069810;27;51153;-50
2022/03/12 01:33:38;;;;;;;;;1.00;1.00;;;;;20.62;38.80;100932.56;5069584;27;51073;-52
2022/03/12 01:36:05;;;;;;;;;3.25;2.75;;;;;20.61;38.34;100928.97;5063633;27;51991;-50
2022/03/12 01:38:34;;;;;;;;;1.25;1.25;;;;;20.60;38.82;100924.53;5064602;28;51041;-52
2022/03/12 01:41:02;;;;;;;;;1.00;1.00;;;;;20.60;38.88;100923.69;5062258;28;51128;-52
2022/03/12 01:43:31;;;;;;;;;2.00;1.00;;;;;20.58;38.83;100923.09;5061272;28;51010;-52
2022/03/12 01:46:00;;;;;;;;;1.00;1.00;;;;;20.57;38.84;100925.00;5064894;27;51509;-51
2022/03/12 01:48:26;;;;;;;;;2.00;1.25;;;;;20.57;38.42;100927.75;5062970;27;51129;-52
2022/03/12 01:50:51;;;;;;;;;1.00;1.00;;;;;20.56;38.76;100928.81;5063682;28;51331;-51
2022/03/12 01:53:17;;;;;;;;;1.50;1.00;;;;;20.54;38.36;100925.44;5062272;28;51168;-51
2022/03/12 01:55:43;;;;;;;;;2.50;1.00;;;;;20.54;38.63;100928.19;5058377;27;51656;-52
2022/03/12 01:58:09;;;;;;;;;1.00;1.00;;;;;20.54;38.45;100932.84;5066062;27;51287;-51
2022/03/12 02:00:45;;;;;;;;;1.00;1.00;;;;;20.53;38.71;100933.91;5061977;27;51221;-51
2022/03/12 02:03:12;;;;;;;;;0.50;0.50;;;;;20.52;38.38;100937.72;5071215;28;51394;-51
2022/03/12 02:05:38;;;;;;;;;1.00;1.00;;;;;20.51;38.69;100947.88;5056895;28;51879;-52
2022/03/12 02:08:04;;;;;;;;;1.00;1.00;;;;;20.51;38.46;100955.28;5064994;28;51081;-53
2022/03/12 02:10:30;;;;;;;;;1.50;1.00;;;;;20.50;38.63;100959.94;5063193;28;51049;-52
2022/03/12 02:12:55;;;;;;;;;1.00;1.00;;;;;20.49;38.73;100955.53;5064277;27;51247;-50
2022/03/12 02:15:22;;;;;;;;;0.00;0.00;;;;;20.49;38.16;100971.19;5064864;27;51231;-52
2022/03/12 02:17:50;;;;;;;;;1.50;1.00;;;;;20.48;38.42;100962.09;5066131;28;51109;-51
2022/03/12 02:20:17;;;;;;;;;1.50;1.50;;;;;20.46;38.34;100964.22;5064038;28;51156;-52
2022/03/12 02:22:44;;;;;;;;;2.50;1.50;;;;;20.45;38.50;100962.53;5068218;27;51123;-51
2022/03/12 02:25:10;;;;;;;;;1.50;1.00;;;;;20.44;38.28;100969.94;5069033;28;51155;-51
2022/03/12 02:27:35;;;;;;;;;1.00;1.00;;;;;20.44;38.76;100966.34;5065704;28;50993;-49
2022/03/12 02:30:02;;;;;;;;;1.75;0.50;;;;;20.43;38.28;100956.41;5074588;27;51294;-48
2022/03/12 02:32:28;;;;;;;;;1.00;1.00;;;;;20.42;38.42;100952.78;5066177;28;51101;-51
2022/03/12 02:34:53;;;;;;;;;0.25;0.25;;;;;20.42;38.50;100963.78;5063852;28;51849;-51
2022/03/12 02:37:30;;;;;;;;;1.00;1.00;;;;;20.41;38.20;100958.47;5064434;28;51412;-50
2022/03/12 02:40:04;;;;;;;;;2.75;2.00;;;;;20.41;38.76;100963.97;5065848;27;51326;-50
2022/03/12 02:42:31;;;;;;;;;2.00;1.00;;;;;20.39;38.63;100953.19;5064516;28;51042;-50
2022/03/12 02:44:58;;;;;;;;;1.00;1.00;;;;;20.39;38.39;100958.69;5068923;27;51052;-51
2022/03/12 02:47:28;;;;;;;;;1.00;1.00;;;;;20.39;38.41;100949.59;5065963;28;50969;-52
2022/03/12 02:49:56;;;;;;;;;1.75;0.00;;;;;20.38;38.08;100956.19;5065327;28;51135;-49
2022/03/12 02:52:24;;;;;;;;;2.00;1.00;;;;;20.37;38.19;100962.75;5072081;28;51242;-50
2022/03/12 02:54:51;;;;;;;;;1.00;1.00;;;;;20.35;38.17;100959.38;5067217;28;51867;-51
2022/03/12 02:57:18;;;;;;;;;2.50;2.00;;;;;20.36;38.37;100958.31;5070101;27;51283;-53
2022/03/12 02:59:45;;;;;;;;;1.00;1.00;;;;;20.35;38.16;100957.47;5065960;28;51105;-53
2022/03/12 03:02:12;;;;;;;;;1.50;1.00;;;;;20.35;38.02;100957.47;5072642;28;51217;-51
2022/03/12 03:04:40;;;;;;;;;0.25;0.25;;;;;20.35;38.19;100959.38;5073046;27;52003;-51
2022/03/12 03:07:10;;;;;;;;;0.25;0.25;;;;;20.35;38.42;100962.13;5067303;27;51014;-51
2022/03/12 03:09:36;;;;;;;;;1.00;1.00;;;;;20.34;38.38;100966.78;5068216;27;51281;-52
2022/03/12 03:12:09;;;;;;;;;1.75;1.25;;;;;20.32;38.44;100960.66;5075888;27;51235;-52
2022/03/12 03:14:36;;;;;;;;;1.00;1.00;;;;;20.32;38.52;100963.41;5069170;27;51913;-51
2022/03/12 03:17:03;;;;;;;;;1.00;1.00;;;;;20.32;38.37;100965.28;5065315;28;51318;-48
2022/03/12 03:19:29;;;;;;;;;6.00;2.00;;;;;20.32;38.25;100970.78;5067223;28;51002;-50
2022/03/12 03:21:57;;;;;;;;;1.25;1.25;;;;;20.32;38.36;100965.28;5072581;28;50988;-49
2022/03/12 03:24:23;;;;;;;;;1.00;1.00;;;;;20.31;38.17;100971.84;5066235;28;52491;-51
2022/03/12 03:26:51;;;;;;;;;2.00;2.00;;;;;20.30;38.12;100967.41;5065532;28;51285;-49
2022/03/12 03:29:19;;;;;;;;;1.50;1.00;;;;;20.31;38.22;100983.72;5075039;27;51310;-49
2022/03/12 03:31:46;;;;;;;;;1.50;1.50;;;;;20.31;38.25;100969.09;5071075;28;51488;-54
2022/03/12 03:34:12;;;;;;;;;2.75;1.75;;;;;20.29;38.15;100974.84;5065407;28;51184;-50
2022/03/12 03:36:37;;;;;;;;;1.25;0.25;;;;;20.30;38.44;100968.25;5063411;28;51230;-53
2022/03/12 03:39:03;;;;;;;;;4.25;2.00;;;;;20.30;38.38;100972.94;5068478;28;52424;-54
2022/03/12 03:41:28;;;;;;;;;2.00;2.00;;;;;20.29;38.54;100972.09;5067054;28;51086;-49
2022/03/12 03:43:53;;;;;;;;;0.75;0.75;;;;;20.29;38.14;100965.75;5065074;28;51814;-48
2022/03/12 03:46:21;;;;;;;;;1.00;1.00;;;;;20.28;38.11;100977.81;5066020;27;51151;-52
2022/03/12 03:48:49;;;;;;;;;1.25;1.25;;;;;20.27;38.22;100982.47;5065497;28;51170;-48
2022/03/12 03:51:15;;;;;;;;;1.50;1.00;;;;;20.26;38.71;100983.53;5070171;28;51347;-49
2022/03/12 03:53:40;;;;;;;;;1.75;1.00;;;;;20.27;38.59;100992.63;5065054;28;52075;-49
2022/03/12 03:56:06;;;;;;;;;1.75;1.00;;;;;20.25;38.07;100979.09;5069449;28;51078;-47
2022/03/12 03:58:34;;;;;;;;;3.00;1.00;;;;;20.26;38.43;100985.44;5065116;28;51157;-50
2022/03/12 04:01:02;;;;;;;;;1.00;1.00;;;;;20.23;38.49;100989.47;5075272;27;51260;-51
2022/03/12 04:03:32;;;;;;;;;2.00;2.00;;;;;20.22;38.37;100979.53;5066594;27;52061;-53
2022/03/12 04:05:58;;;;;;;;;0.00;0.00;;;;;20.24;38.24;100987.56;5066720;28;50956;-49
2022/03/12 04:08:24;;;;;;;;;0.25;0.25;;;;;20.23;38.48;100986.72;5064984;28;51114;-51
2022/03/12 04:10:49;;;;;;;;;0.75;0.75;;;;;20.23;38.66;100988.63;5065418;28;51157;-49
2022/03/12 04:13:17;;;;;;;;;1.00;1.00;;;;;20.22;38.26;100985.03;5061919;28;51766;-51
2022/03/12 04:15:42;;;;;;;;;2.00;2.00;;;;;20.23;38.48;100991.38;5067248;27;51290;-50
2022/03/12 04:18:09;;;;;;;;;0.75;0.75;;;;;20.21;38.11;100990.72;5065000;28;51133;-52
2022/03/12 04:20:35;;;;;;;;;1.00;1.00;;;;;20.20;38.33;100989.88;5066527;28;51307;-52
2022/03/12 04:23:01;;;;;;;;;1.00;1.00;;;;;20.21;38.25;100990.72;5066823;27;51792;-52
2022/03/12 04:25:31;;;;;;;;;2.00;1.00;;;;;20.19;38.19;100996.44;5069517;28;51128;-51
2022/03/12 04:28:00;;;;;;;;;1.00;1.00;;;;;20.19;38.26;100991.78;5064771;27;51209;-53
2022/03/12 04:30:28;;;;;;;;;1.00;1.00;;;;;20.19;38.20;100982.69;5069142;27;51206;-52
2022/03/12 04:32:54;;;;;;;;;0.25;0.25;;;;;20.18;38.12;100990.09;5064181;28;51998;-52
2022/03/12 04:35:19;;;;;;;;;2.00;0.75;;;;;20.18;38.33;100989.25;5069438;27;51116;-48
2022/03/12 04:37:44;;;;;;;;;1.75;1.75;;;;;20.17;38.19;100993.91;5067177;28;51392;-50
2022/03/12 04:40:15;;;;;;;;;2.00;0.25;;;;;20.17;38.50;100999.44;5065786;27;51905;-51
2022/03/12 04:42:43;;;;;;;;;0.50;0.50;;;;;20.17;38.29;100995.81;5065098;28;52012;-49
2022/03/12 04:45:10;;;;;;;;;1.50;0.25;;;;;20.16;38.27;100992.25;5069199;27;51111;-51
2022/03/12 04:47:36;;;;;;;;;1.00;1.00;;;;;20.14;38.26;100988.88;5067024;27;51128;-51
2022/03/12 04:50:03;;;;;;;;;2.00;0.50;;;;;20.14;38.09;101005.38;5073121;27;51369;-48
2022/03/12 04:52:30;;;;;;;;;1.00;1.00;;;;;20.15;38.04;100997.97;5067018;27;51200;-49
2022/03/12 04:54:56;;;;;;;;;1.50;1.50;;;;;20.14;38.38;101004.53;5067928;27;51404;-50
2022/03/12 04:57:22;;;;;;;;;0.75;0.75;;;;;20.13;37.95;101002.84;5069239;27;51111;-51
2022/03/12 04:59:47;;;;;;;;;0.50;0.50;;;;;20.13;38.30;101000.09;5065659;27;51287;-53
2022/03/12 05:02:12;;;;;;;;;2.00;0.00;;;;;20.12;38.40;101013.00;5069874;27;51979;-51
2022/03/12 05:04:38;;;;;;;;;2.75;0.75;;;;;20.11;38.26;101022.31;5063983;28;51106;-48
2022/03/12 05:07:14;;;;;;;;;0.25;0.25;;;;;20.12;38.57;101028.66;5062583;28;51141;-49
2022/03/12 05:09:39;;;;;;;;;0.00;0.00;;;;;20.10;38.31;101023.34;5061008;28;51297;-48
2022/03/12 05:12:05;;;;;;;;;1.25;0.50;;;;;20.11;38.05;101024.19;5063723;27;51807;-52
2022/03/12 05:14:35;;;;;;;;;0.25;0.00;;;;;20.10;38.21;101023.34;5064143;28;51486;-52
2022/03/12 05:17:04;;;;;;;;;0.50;0.50;;;;;20.10;38.05;101028.84;5079507;27;51205;-48
2022/03/12 05:19:30;;;;;;;;;1.00;1.00;;;;;20.09;38.01;101029.91;5063276;27;51562;-48
2022/03/12 05:21:55;;;;;;;;;1.00;1.00;;;;;20.08;38.38;101028.22;5060791;28;51149;-53
2022/03/12 05:24:20;;;;;;;;;0.00;0.00;;;;;20.09;38.29;101024.41;5064040;28;51141;-52
2022/03/12 05:26:46;;;;;;;;;1.00;1.00;;;;;20.07;38.46;101021.03;5061864;28;51165;-52
2022/03/12 05:29:11;;;;;;;;;1.00;1.00;;;;;20.08;38.10;101030.97;5065732;27;51103;-52
2022/03/12 05:31:37;;;;;;;;;0.00;0.00;;;;;20.08;38.52;101036.47;5061029;28;51590;-53
2022/03/12 05:34:02;;;;;;;;;1.00;1.00;;;;;20.07;38.33;101039.44;5069078;27;51186;-50
2022/03/12 05:36:28;;;;;;;;;1.00;1.00;;;;;20.06;38.23;101035.84;5068969;28;52355;-51
2022/03/12 05:38:53;;;;;;;;;2.00;2.00;;;;;20.07;38.09;101032.03;5061980;27;51012;-50
2022/03/12 05:41:18;;;;;;;;;0.75;0.75;;;;;20.07;38.04;101028.44;5063148;27;51792;-51
2022/03/12 05:43:49;;;;;;;;;0.75;0.75;;;;;20.05;38.07;101039.66;5064035;28;51371;-52
2022/03/12 05:46:17;;;;;;;;;1.00;1.00;;;;;20.05;38.06;101039.66;5059818;28;51497;-51
2022/03/12 05:48:46;;;;;;;;;0.00;0.00;;;;;20.04;38.47;101035.22;5073673;28;51012;-50
2022/03/12 05:51:12;;;;;;;;;1.25;0.25;;;;;20.05;37.83;101038.81;5065930;27;51975;-52
2022/03/12 05:53:38;;;;;;;;;0.00;0.00;;;;;20.04;38.32;101048.13;5067350;28;51338;-52
2022/03/12 05:56:04;;;;;;;;;2.00;1.25;;;;;20.04;37.91;101054.47;5066564;28;51176;-48
2022/03/12 05:58:35;;;;;;;;;0.00;0.00;;;;;20.03;37.99;101063.78;5063806;28;50961;-50
2022/03/12 06:01:01;;;;;;;;;0.00;0.00;;;;;20.02;38.37;101059.34;5062449;27;51082;-49
2022/03/12 06:03:26;;;;;;;;;1.25;0.75;;;;;20.02;38.22;101053.00;5070397;27;51177;-51
2022/03/12 06:05:56;;;;;;;;;0.50;0.50;;;;;20.02;38.10;101047.50;5069532;27;51177;-51
2022/03/12 06:08:22;;;;;;;;;2.00;1.00;;;;;20.00;38.23;101050.44;5067230;28;50946;-51
2022/03/12 06:10:52;;;;;;;;;1.75;1.00;;;;;20.00;38.08;101055.94;5065255;28;51833;-51
2022/03/12 06:13:19;;;;;;;;;0.25;0.25;;;;;20.00;37.84;101060.59;5062297;27;51442;-52
2022/03/12 06:15:48;;;;;;;;;1.50;0.75;;;;;20.00;38.02;101066.09;5064735;27;51037;-53
2022/03/12 06:18:15;;;;;;;;;1.00;0.25;;;;;19.99;38.09;101070.75;5066787;28;51138;-50
2022/03/12 06:20:42;;;;;;;;;1.00;0.00;;;;;19.99;38.00;101070.75;5065701;27;51166;-50
2022/03/12 06:23:07;;;;;;;;;0.00;0.00;;;;;19.98;38.17;101071.81;5066571;28;51086;-49
2022/03/12 06:25:34;;;;;;;;;1.00;1.00;;;;;19.99;37.87;101075.41;5064429;28;51299;-47
2022/03/12 06:28:01;;;;;;;;;1.00;1.00;;;;;19.99;37.92;101083.66;5070011;27;51448;-51
2022/03/12 06:30:28;;;;;;;;;0.00;0.00;;;;;19.98;38.20;101093.81;5071378;27;51176;-50
2022/03/12 06:32:56;;;;;;;;;0.25;0.25;;;;;19.98;37.79;101095.72;5067097;27;51427;-52
2022/03/12 06:35:22;;;;;;;;;1.75;0.00;;;;;19.97;38.03;101097.63;5066220;28;51148;-51
2022/03/12 06:37:48;;;;;;;;;0.25;0.00;;;;;19.97;38.15;101094.88;5066170;28;51347;-49
2022/03/12 06:40:15;;;;;;;;;1.00;1.00;;;;;19.96;37.94;101095.94;5069212;28;51120;-51
2022/03/12 06:42:43;;;;;;;;;1.00;1.00;;;;;19.96;38.33;101098.69;5068974;27;51237;-52
2022/03/12 06:45:10;;;;;;;;;1.00;1.00;;;;;19.95;38.09;101099.75;5068626;28;51354;-51
2022/03/12 06:47:38;;;;;;;;;0.50;0.00;;;;;19.95;38.09;101097.00;5067068;28;51334;-53
2022/03/12 06:50:08;;;;;;;;;1.25;0.00;;;;;19.95;37.72;101104.41;5066908;28;51886;-51
2022/03/12 06:52:34;;;;;;;;;1.00;1.00;;;;;19.94;37.80;101108.22;5067839;28;51254;-52
2022/03/12 06:55:00;;;;;;;;;1.00;1.00;;;;;19.93;37.80;101112.88;5070389;28;51178;-51
2022/03/12 06:57:25;;;;;;;;;0.50;0.50;;;;;19.93;38.15;101121.09;5074055;28;51397;-51
2022/03/12 06:59:51;;;;;;;;;1.00;1.00;;;;;19.92;37.83;101122.16;5067591;27;51960;-50
2022/03/12 07:02:17;;;;;;;;;1.00;1.00;;;;;19.92;37.80;101135.91;5066300;27;51220;-51
2022/03/12 07:04:42;;;;;;;;;1.75;0.75;;;;;19.92;38.04;101143.31;5059599;27;51447;-51
2022/03/12 07:07:07;;;;;;;;;2.00;1.00;;;;;19.92;38.14;101143.31;5066378;28;51198;-51
2022/03/12 07:09:34;;;;;;;;;1.75;1.00;;;;;19.93;37.95;101150.50;5068794;28;51780;-52
2022/03/12 07:12:00;;;;;;;;;0.25;0.25;;;;;19.91;37.63;101147.97;5059444;28;51202;-48
2022/03/12 07:14:26;;;;;;;;;1.25;0.75;;;;;19.91;37.95;101156.22;5082128;27;51351;-52
2022/03/12 07:16:52;;;;;;;;;1.00;1.00;;;;;19.90;38.04;101154.50;5065574;27;51234;-53
2022/03/12 07:19:17;;;;;;;;;0.00;0.00;;;;;19.91;37.98;101155.38;5069060;27;51013;-49
2022/03/12 07:21:43;;;;;;;;;0.00;0.00;;;;;19.90;37.99;101160.00;5066244;28;50999;-51
2022/03/12 07:24:08;;;;;;;;;0.75;0.75;;;;;19.88;38.13;101145.63;5068590;27;51089;-49
2022/03/12 07:26:33;;;;;;;;;1.75;1.00;;;;;19.89;38.01;101142.66;5065593;28;51229;-47
2022/03/12 07:29:00;;;;;;;;;0.00;0.00;;;;;19.88;37.77;101146.47;5072775;27;51634;-48
2022/03/12 07:31:25;;;;;;;;;3.00;1.00;;;;;19.87;37.92;101155.78;5066663;27;51379;-50
2022/03/12 07:33:51;;;;;;;;;1.00;0.00;;;;;19.87;37.86;101154.94;5058522;28;51061;-47
2022/03/12 07:36:17;;;;;;;;;2.00;1.00;;;;;19.86;37.78;101162.34;5070740;27;51214;-50
2022/03/12 07:38:43;;;;;;;;;3.00;1.00;;;;;19.86;37.93;101162.34;5065797;28;51117;-48
2022/03/12 07:41:08;;;;;;;;;1.25;1.25;;;;;19.86;38.06;101165.09;5070359;28;51088;-49
2022/03/12 07:43:34;;;;;;;;;1.00;1.00;;;;;19.85;38.29;101166.16;5073222;28;51167;-51
2022/03/12 07:45:59;;;;;;;;;1.00;1.00;;;;;19.85;37.96;101168.91;5060983;27;51978;-52
2022/03/12 07:48:25;;;;;;;;;1.00;1.00;;;;;19.84;38.04;101161.72;5061773;28;52594;-51
2022/03/12 07:50:50;;;;;;;;;2.25;0.00;;;;;19.85;37.64;101168.06;5065095;27;51137;-52
2022/03/12 07:53:16;;;;;;;;;1.50;1.00;;;;;19.84;37.94;101158.97;5068039;28;51555;-52
2022/03/12 07:55:41;;;;;;;;;1.00;1.00;;;;;19.84;38.16;101164.47;5063054;28;50929;-51
2022/03/12 07:58:07;;;;;;;;;1.00;1.00;;;;;19.84;37.91;101163.63;5061952;27;50959;-51
2022/03/12 08:00:33;;;;;;;;;1.25;1.00;;;;;19.83;38.09;101179.25;5066233;27;51013;-50
2022/03/12 08:02:59;;;;;;;;;1.50;1.50;;;;;19.84;38.00;101180.09;5066071;28;51530;-50
2022/03/12 08:05:25;;;;;;;;;1.75;1.75;;;;;19.81;37.86;101189.63;5067240;28;51086;-48
2022/03/12 08:07:54;;;;;;;;;2.00;2.00;;;;;19.80;37.39;101206.31;5065158;27;52698;-52
2022/03/12 08:10:20;;;;;;;;;2.75;2.00;;;;;19.77;37.68;101204.81;5079284;27;51333;-50
2022/03/12 08:12:46;;;;;;;;;3.00;2.50;;;;;19.75;37.57;101222.59;5065487;28;51194;-51
2022/03/12 08:15:12;;;;;;;;;3.00;3.00;;;;;19.71;37.65;101221.31;5067568;27;51041;-49
2022/03/12 08:17:38;;;;;;;;;3.00;3.00;;;;;19.69;37.47;101226.16;5065112;27;51099;-51
2022/03/12 08:20:07;;;;;;;;;3.00;3.00;;;;;19.67;37.82;101231.88;5064314;28;52185;-52
2022/03/12 08:22:33;;;;;;;;;2.50;2.00;;;;;19.63;37.48;101222.34;5060788;27;51132;-52
2022/03/12 08:24:58;;;;;;;;;2.75;2.75;;;;;19.59;37.61;101219.19;5069040;28;51275;-51
2022/03/12 08:27:24;;;;;;;;;2.25;2.25;;;;;19.60;37.51;101228.28;5064596;27;51568;-52
2022/03/12 08:29:49;;;;;;;;;4.00;2.00;;;;;19.65;37.23;101230.38;5061882;27;51250;-53
2022/03/12 08:32:15;;;;;;;;;2.50;1.00;;;;;19.72;37.62;101248.59;5064366;28;51215;-54
2022/03/12 08:34:41;;;;;;;;;1.25;1.25;;;;;19.80;37.99;101242.03;5068194;28;51139;-53
2022/03/12 08:37:07;;;;;;;;;2.75;1.00;;;;;19.87;38.66;101249.25;5064415;27;52076;-53
2022/03/12 08:39:33;;;;;;;;;1.75;1.75;;;;;19.94;39.22;101252.03;5060201;27;51159;-54
2022/03/12 08:41:58;;;;;;;;;2.50;2.00;;;;;20.00;39.20;101242.94;5061097;28;51132;-54
2022/03/12 08:44:24;;;;;;;;;3.00;3.00;;;;;20.08;38.88;101247.38;5057583;28;51479;-55
2022/03/12 08:46:49;;;;;;;;;2.00;2.00;;;;;20.12;39.29;101249.53;5079719;27;51923;-54
2022/03/12 08:49:16;;;;;;;;;4.75;3.25;;;;;20.22;39.20;101237.22;5070677;27;51144;-55
2022/03/12 08:51:42;;;;;;;;;4.00;2.00;;;;;20.29;39.31;101238.09;5068046;28;51134;-53
2022/03/12 08:54:08;;;;;;;;;5.00;4.00;;;;;20.34;39.21;101236.41;5068072;28;51402;-53
2022/03/12 08:56:35;;;;;;;;;2.25;2.00;;;;;20.42;39.20;101233.44;5071182;27;51701;-55
2022/03/12 08:59:01;;;;;;;;;3.00;2.00;;;;;20.51;39.12;101236.00;5067603;27;51028;-54
2022/03/12 09:01:26;;;;;;;;;4.25;2.00;;;;;20.57;39.16;101240.66;5058317;27;51295;-52
2022/03/12 09:03:52;;;;;;;;;2.00;1.50;;;;;20.61;39.20;101244.66;5062940;28;51287;-52
2022/03/12 09:06:18;;;;;;;;;1.75;1.75;;;;;20.61;39.62;101241.91;5064250;28;51274;-52
2022/03/12 09:08:46;;;;;;;;;2.00;2.00;;;;;20.61;39.59;101230.91;5058123;28;51077;-51
2022/03/12 09:11:17;;;;;;;;;2.00;2.00;;;;;20.60;39.63;101237.47;5065385;27;51247;-51
2022/03/12 09:13:42;;;;;;;;;3.00;2.75;;;;;20.57;39.89;101236.00;5080062;27;51246;-50
2022/03/12 09:16:08;;;;;;;;;2.00;1.00;;;;;20.56;40.21;101228.81;5079982;27;51180;-49
2022/03/12 09:18:33;;;;;;;;;3.00;3.00;;;;;20.56;39.89;101241.72;5072664;28;51496;-48
2022/03/12 09:20:59;;;;;;;;;2.00;2.00;;;;;20.54;39.97;101236.44;5073783;27;51138;-51
2022/03/12 09:23:24;;;;;;;;;4.00;2.00;;;;;20.55;39.96;101232.63;5066217;27;51212;-49
2022/03/12 09:25:51;;;;;;;;;1.00;1.00;;;;;20.59;40.10;101228.38;5074466;27;51716;-52
2022/03/12 09:28:17;;;;;;;;;1.00;1.00;;;;;20.67;39.98;101238.31;5075062;27;51223;-51
2022/03/12 09:30:43;;;;;;;;;1.75;1.75;;;;;20.74;40.53;101231.75;5078099;27;51371;-52
2022/03/12 09:33:09;;;;;;;;;4.00;2.00;;;;;20.82;39.90;101232.56;5068234;27;51164;-51
2022/03/12 09:35:35;;;;;;;;;4.00;3.50;;;;;20.88;39.96;101237.22;5062031;28;52296;-51
2022/03/12 09:38:02;;;;;;;;;2.25;1.00;;;;;20.89;39.88;101234.25;5066725;27;51164;-53
2022/03/12 09:40:29;;;;;;;;;1.75;1.75;;;;;20.89;40.01;101236.16;5056914;27;51134;-53
2022/03/12 09:42:54;;;;;;;;;2.50;2.50;;;;;20.89;40.09;101236.16;5059673;28;51213;-54
2022/03/12 09:45:22;;;;;;;;;2.00;1.00;;;;;20.88;40.46;101228.94;5058387;28;52289;-52
2022/03/12 09:47:48;;;;;;;;;3.00;1.25;;;;;20.86;40.42;101222.81;5057574;28;51020;-51
2022/03/12 09:50:14;;;;;;;;;3.00;2.00;;;;;20.84;40.29;101220.28;5064882;27;51310;-52
2022/03/12 09:52:40;;;;;;;;;2.25;2.00;;;;;20.85;40.53;101221.13;5069721;27;50993;-54
2022/03/12 09:55:07;;;;;;;;;4.75;3.50;;;;;20.84;40.40;101223.03;5062853;27;51828;-54
2022/03/12 09:57:34;;;;;;;;;2.50;2.50;;;;;20.84;40.48;101214.78;5057895;27;51183;-53
2022/03/12 10:00:01;;;;;;;;;2.00;2.00;;;;;20.84;40.55;101220.28;5063976;27;51219;-50
2022/03/12 10:02:26;;;;;;;;;3.00;2.00;;;;;20.90;40.44;101224.06;5065328;27;51093;-51
2022/03/12 10:04:53;;;;;;;;;2.25;2.00;;;;;20.99;40.57;101233.78;5063396;27;51678;-53
2022/03/12 10:07:19;;;;;;;;;1.00;1.00;;;;;21.08;40.55;101228.91;5057606;28;51166;-54
2022/03/12 10:09:44;;;;;;;;;3.50;3.00;;;;;21.15;40.75;101227.78;5061682;27;51243;-55
2022/03/12 10:12:10;;;;;;;;;3.50;2.75;;;;;21.21;40.46;101224.19;5066811;27;51400;-52
2022/03/12 10:14:35;;;;;;;;;6.00;3.00;;;;;21.23;41.10;101226.72;5071615;27;51260;-55
2022/03/12 10:17:02;;;;;;;;;4.00;2.50;;;;;21.23;41.59;101219.28;5067585;27;51036;-55
2022/03/12 10:19:29;;;;;;;;;3.00;3.00;;;;;21.23;41.80;101222.03;5058331;28;51268;-54
2022/03/12 10:21:55;;;;;;;;;2.50;2.00;;;;;21.22;41.36;101214.84;5067233;28;51266;-53
2022/03/12 10:24:20;;;;;;;;;4.25;2.25;;;;;21.22;41.75;101212.09;5062508;27;51716;-53
2022/03/12 10:26:46;;;;;;;;;2.75;2.00;;;;;21.22;41.54;101209.34;5054247;28;51218;-56
2022/03/12 10:29:12;;;;;;;;;3.00;3.00;;;;;21.22;41.49;101214.84;5063530;27;51258;-54
2022/03/12 10:31:38;;;;;;;;;4.25;4.25;;;;;21.21;41.44;101207.66;5060696;27;51165;-53
2022/03/12 10:34:24;;;;;;;;;5.25;2.25;;;;;21.21;41.29;101213.16;5064053;27;52554;-51
2022/03/12 10:36:53;;;;;;;;;3.00;1.50;;;;;21.20;41.36;101210.63;5056238;27;51179;-51
2022/03/12 10:39:33;;;;;;;;;4.00;4.00;;;;;21.16;41.71;101204.72;5068760;28;51140;-53
2022/03/12 10:42:04;;;;;;;;;4.25;2.50;;;;;21.13;41.71;101202.38;5061756;28;51097;-53
2022/03/12 10:44:39;;;;;;;;;4.25;3.00;;;;;21.09;41.83;101206.63;5068304;27;53357;-51
2022/03/12 10:47:24;;;;;;;;;4.00;2.00;;;;;21.06;41.22;101206.25;5070480;28;51450;-52
2022/03/12 10:50:04;;;;;;;;;3.50;2.75;;;;;21.02;41.60;101211.31;5073417;28;51210;-52
2022/03/12 10:52:32;;;;;;;;;5.50;2.75;;;;;20.99;41.03;101203.50;5065615;28;51168;-51
2022/03/12 10:54:58;;;;;;;;;3.00;3.00;;;;;20.95;41.38;101202.25;5068148;28;51802;-53
2022/03/12 10:57:24;;;;;;;;;3.00;2.00;;;;;20.93;41.59;101201.59;5068183;27;51082;-52
2022/03/12 10:59:54;;;;;;;;;6.25;4.00;;;;;20.89;41.16;101201.19;5068413;28;51236;-52
2022/03/12 11:02:19;;;;;;;;;2.00;2.00;;;;;20.87;41.24;101208.84;5068601;27;51424;-48
2022/03/12 11:04:45;;;;;;;;;3.75;2.00;;;;;20.84;41.49;101198.25;5067002;28;52022;-52
2022/03/12 11:07:29;;;;;;;;;2.00;2.00;;;;;20.81;41.33;101203.34;5058477;28;51053;-52
2022/03/12 11:09:55;;;;;;;;;3.25;2.00;;;;;20.79;41.06;101197.19;5065231;28;51793;-49
2022/03/12 11:12:35;;;;;;;;;2.50;2.50;;;;;20.75;41.32;101191.28;5066045;27;50959;-49
2022/03/12 11:15:15;;;;;;;;;3.50;2.00;;;;;20.71;41.24;101190.00;5061039;27;51715;-49
2022/03/12 11:17:46;;;;;;;;;4.00;2.50;;;;;20.69;41.10;101189.38;5066375;27;51055;-50
2022/03/12 11:20:16;;;;;;;;;5.00;3.00;;;;;20.66;41.27;101190.66;5068486;27;51204;-49
2022/03/12 11:22:41;;;;;;;;;2.75;2.75;;;;;20.65;41.44;101180.72;5069306;28;51206;-48